• Join FlightAware (Why Join?)
  • Login
  • US Flag 
06:36AM EST


 

Airport Tracker/Info


-or-


 

Live Flight TrackerFlight Track Log ✈ FLG3729 ✈ 18-Jun-2013 ✈ KALB - KDTW

Flight Track Log - Related Links

Times and Time Zones

All times are in EDT time to prevent confusion due to time zone crossing. See the FLG3729 flight status page for this flight to view local times or setup timezone preferences in your user account.

Time Position Orientation Groundspeed Altitude Reporting Facility
EDT Latitude Longitude Course Direction KTS MPH feet Rate Location/Type
06:02AM 42.7694 -73.8089 283° West 146 168 1,400  Level Boston Center
06:03AM 42.8131 -73.8128 356° North 191 220 3,000 1,620 Climbing Boston Center
06:03AM 42.8422 -73.8164 355° North 228 262 4,200 2,520 Climbing Boston Center
06:04AM 42.9125 -73.8689 331° Northwest 240 276 7,400 3,000 Climbing Boston Center
06:05AM 42.9847 -73.9189 333° Northwest 251 289 10,300 1,980 Climbing Boston Center
06:06AM 42.8402 -74.3743 283° West  Level FlightAware Approximate
06:06AM 43.0464 -73.9828 323° Northwest 293 337 11,400  Level Boston Center
06:07AM 42.8596 -74.4911 283° West  Level FlightAware Approximate
06:07AM 43.1200 -74.0814 316° Northwest 331 381 13,800  Level Boston Center
06:08AM 43.1603 -74.1764 300° West 331 381 15,600 1,800 Climbing Boston Center
06:09AM 43.1625 -74.3103 271° West 314 361 17,400 1,500 Climbing Boston Center
06:10AM 43.1647 -74.4242 272° West 332 382 18,700 1,260 Climbing Boston Center
06:11AM 43.1642 -74.5694 270° West 346 398 20,000 1,260 Climbing Boston Center
06:12AM 43.1636 -74.7031 270° West 346 398 21,300 1,260 Climbing Boston Center
06:13AM 43.1650 -74.8369 271° West 351 404 22,600 1,140 Climbing Boston Center
06:14AM 43.1558 -74.9703 265° West 351 404 23,600 900 Climbing Boston Center
06:16AM 43.1427 -75.1085 260° West  Level FlightAware Approximate
06:17AM 43.1400 -75.3794 266° West 357 411 26,300  Level Boston Center
06:19AM 43.1284 -75.5180 264° West  Level FlightAware Approximate
06:19AM 43.1244 -75.6436 264° West 368 423 27,100  Level Boston Center
06:21AM 43.1082 -75.7813 261° West  Level FlightAware Approximate
06:21AM 43.1100 -75.9186 261° West 363 418 28,000  Level Boston Center
06:22AM 43.1036 -76.0578 266° West 363 418 28,000  Level Boston Center
06:23AM 43.0919 -76.0057 266° West  Level FlightAware Approximate
06:25AM 43.0828 -76.3986 265° West 386 444 28,000  Level Cleveland Center
06:26AM 43.0753 -76.5411 266° West 386 444 28,000  Level Cleveland Center
06:27AM 43.0675 -76.6811 266° West 386 444 28,000  Level Cleveland Center
06:28AM 43.0594 -76.8094 265° West 386 444 28,000  Level Cleveland Center
06:29AM 43.0492 -76.9492 264° West 386 444 28,000  Level Cleveland Center
06:30AM 43.0411 -77.0889 266° West 386 444 28,000  Level Cleveland Center
06:31AM 43.0308 -77.2344 265° West 386 444 28,000  Level Cleveland Center
06:32AM 43.0203 -77.3769 264° West 386 444 28,000  Level Cleveland Center
06:33AM 43.0117 -77.5194 265° West 386 444 28,000  Level Cleveland Center
06:34AM 43.0006 -77.6619 264° West 386 444 28,000  Level Cleveland Center
06:35AM 42.9917 -77.8044 265° West 386 444 28,000  Level Cleveland Center
06:36AM 42.9806 -77.9497 264° West 386 444 28,000  Level Cleveland Center
06:37AM 42.9731 -78.0917 266° West 386 444 28,000  Level Cleveland Center
06:38AM 42.9617 -78.2342 264° West 386 444 28,000  Level Cleveland Center
06:39AM 42.9500 -78.3822 264° West 386 444 28,000  Level Cleveland Center
06:40AM 42.9400 -78.5242 265° West 386 444 28,000  Level Cleveland Center
06:41AM 42.9278 -78.6664 263° West 386 444 28,000  Level Cleveland Center
06:42AM 42.9072 -78.8089 259° West 386 444 28,000  Level Cleveland Center
06:43AM 42.8864 -78.9511 259° West 386 444 28,000  Level Cleveland Center
06:44AM 42.8633 -79.0961 258° West 392 451 28,000  Level Cleveland Center
06:45AM 42.8422 -79.2411 259° West 392 451 28,000  Level Cleveland Center
06:46AM 42.8250 -79.3831 261° West 392 451 28,000  Level Cleveland Center
06:47AM 42.8033 -79.5250 258° West 392 451 28,000  Level Cleveland Center
06:48AM 42.7817 -79.6694 258° West 392 451 28,000  Level Cleveland Center
06:49AM 42.7600 -79.8142 259° West 392 451 28,000  Level Cleveland Center
06:50AM 42.7483 -79.9583 264° West 392 451 28,000  Level Cleveland Center
06:51AM 42.7386 -80.1253 266° West 402 463 28,000  Level Cleveland Center
06:52AM 42.7328 -80.2750 267° West 402 463 28,000  Level Cleveland Center
06:53AM 42.7247 -80.4222 266° West 397 457 28,000  Level Cleveland Center
06:54AM 42.7208 -80.5747 268° West 403 464 28,000  Level Cleveland Center
06:55AM 42.7144 -80.7161 267° West 396 456 28,000  Level Cleveland Center
06:56AM 42.7078 -80.8714 267° West 401 461 28,000  Level Cleveland Center
06:57AM 42.6928 -81.0153 262° West 406 467 28,000 -540 Level Cleveland Center
06:58AM 42.6756 -81.1622 261° West 400 460 27,000 -960 Descending Cleveland Center
06:59AM 42.6603 -81.2947 261° West 400 460 26,200 -960 Descending Cleveland Center
07:00AM 42.6425 -81.4442 261° West 400 460 25,100 -1,080 Descending Cleveland Center
07:01AM 42.6247 -81.5878 260° West 400 460 24,100 -1,200 Descending Cleveland Center
07:02AM 42.6086 -81.7342 262° West 400 460 22,700 -1,620 Descending Cleveland Center
07:03AM 42.5883 -81.8775 259° West 394 453 20,900 -1,860 Descending Cleveland Center
07:04AM 42.5722 -82.0211 261° West 389 448 19,100 -1,860 Descending Cleveland Center
07:05AM 42.5558 -82.1589 261° West 389 448 17,200 -1,920 Descending Cleveland Center
07:06AM 42.5372 -82.2936 259° West 383 441 15,300 -1,860 Descending Cleveland Center
07:07AM 42.5228 -82.4200 261° West 367 422 13,500 -1,680 Descending Cleveland Center
07:08AM 42.5061 -82.5433 260° West 351 404 12,000 -780 Descending Cleveland Center
07:09AM 42.4667 -82.6547 244° Southwest 338 389 12,000  Level Cleveland Center
07:10AM 42.4267 -82.7744 246° West 326 375 12,000  Level Cleveland Center
07:11AM 42.3894 -82.8744 243° Southwest 333 383 12,000  Level Cleveland Center
07:12AM 42.3497 -82.9853 244° Southwest 333 383 12,000  Level Cleveland Center
07:13AM 42.3119 -83.0933 245° Southwest 333 383 12,000  Level Cleveland Center
07:14AM 42.2808 -83.1736 242° Southwest 294 338 12,000 -120 Level Cleveland Center
07:15AM 42.2278 -83.2164 211° Southwest 248 285 11,800 -1,200 Descending Cleveland Center
07:16AM 42.1539 -83.2553 201° Southwest 237 273 9,700 -1,920 Descending Cleveland Center
07:17AM 42.0883 -83.3000 207° Southwest 237 273 7,700 -1,500 Descending Cleveland Center
07:18AM 42.0292 -83.3367 205° Southwest 230 265 6,500 -1,200 Descending Cleveland Center
07:19AM 41.9839 -83.3961 224° Southwest 230 265 5,300 -1,260 Descending Cleveland Center
07:20AM 42.0072 -83.4558 298° West 208 239 4,000 -780 Descending Cleveland Center
07:21AM 42.0575 -83.4525 North 183 211 3,800 -660 Descending Cleveland Center
07:22AM 42.1064 -83.4183 27° Northeast 178 205 2,700 -1,020 Descending Cleveland Center
07:23AM 42.1403 -83.3975 25° Northeast 138 159 1,900 -900 Descending Cleveland Center